• Join FlightAware (Why Join?)
  • Login
  • US Flag 
09:47AM EST


 

Airport Tracker/Info


-or-


 

Live Flight TrackerFlight Track Log ✈ UAL4457 ✈ 23-Apr-2013 ✈ KIAH - KLEX

Flight Track Log - Related Links

Times and Time Zones

All times are in EDT time to prevent confusion due to time zone crossing. See the UAL4457 flight status page for this flight to view local times or setup timezone preferences in your user account.

Time Position Orientation Groundspeed Altitude Reporting Facility
EDT Latitude Longitude Course Direction KTS MPH feet Rate Location/Type
03:02PM 29.9764 -95.2983 41° Northeast 162 186 700  Level Houston Center
03:03PM 30.0275 -95.2583 34° Northeast 246 283 2,700 1,920 Climbing Houston Center
03:04PM 30.0756 -95.2344 23° Northeast 249 287 4,500 2,280 Climbing Houston Center
03:05PM 30.3702 -95.0239 35° Northeast  Level FlightAware Approximate
03:05PM 30.1419 -95.1867 32° Northeast 275 316 6,900  Level Houston Center
03:06PM 30.4657 -94.9500 North  Level FlightAware Approximate
03:06PM 30.2128 -95.1358 32° Northeast 295 339 9,600  Level Houston Center
03:07PM 30.5620 -94.8713 41° Northeast  Level FlightAware Approximate
03:07PM 30.2900 -95.0814 31° Northeast 323 372 10,600  Level Houston Center
03:08PM 30.3769 -95.0181 32° Northeast 363 418 12,100 1,680 Climbing Houston Center
03:09PM 30.4811 -94.9425 32° Northeast 376 433 14,100 1,800 Climbing Houston Center
03:10PM 30.5719 -94.8775 32° Northeast 381 438 15,900 1,560 Climbing Houston Center
03:11PM 30.6622 -94.8081 33° Northeast 388 447 17,400 1,440 Climbing Houston Center
03:12PM 30.7536 -94.7372 34° Northeast 393 452 18,900 1,560 Climbing Houston Center
03:13PM 30.8653 -94.6508 34° Northeast 402 463 20,700 1,560 Climbing Houston Center
03:14PM 30.9192 -94.6094 33° Northeast 390 449 21,600 1,440 Climbing Fort Worth Center
03:15PM 31.0114 -94.5364 34° Northeast 396 456 23,100 1,440 Climbing Fort Worth Center
03:16PM 31.1100 -94.4606 33° Northeast 406 467 24,500 900 Climbing Fort Worth Center
03:17PM 31.2083 -94.3847 33° Northeast 420 483 25,000 240 Climbing Fort Worth Center
03:18PM 31.3128 -94.3011 34° Northeast 434 499 25,000 600 Level Fort Worth Center
03:19PM 31.4192 -94.2197 33° Northeast 448 516 26,300 1,380 Climbing Fort Worth Center
03:20PM 31.5217 -94.1406 33° Northeast 448 516 27,800 1,440 Climbing Fort Worth Center
03:21PM 31.6219 -94.0639 33° Northeast 443 510 29,200 1,500 Climbing Fort Worth Center
03:22PM 31.7261 -93.9819 34° Northeast 424 488 30,800 1,500 Climbing Fort Worth Center
03:23PM 31.8244 -93.9072 33° Northeast 424 488 32,300 1,320 Climbing Fort Worth Center
03:24PM 31.8958 -93.8483 35° Northeast 410 472 33,500 1,320 Climbing Fort Worth Center
03:25PM 31.9997 -93.7658 34° Northeast 405 466 35,000 720 Climbing Fort Worth Center
03:26PM 32.1061 -93.6831 33° Northeast 406 467 35,000  Level Fort Worth Center
03:27PM 32.2036 -93.5958 37° Northeast 417 480 35,000  Level Fort Worth Center
03:28PM 32.3094 -93.5103 34° Northeast 439 505 35,000  Level Fort Worth Center
03:29PM 32.4194 -93.4217 34° Northeast 459 528 35,000  Level Fort Worth Center
03:30PM 32.5314 -93.3306 34° Northeast 473 544 35,000  Level Fort Worth Center
03:31PM 32.6411 -93.2417 34° Northeast 478 550 35,000  Level Fort Worth Center
03:32PM 32.7531 -93.1550 33° Northeast 478 550 35,000  Level Fort Worth Center
03:33PM 32.8606 -93.0658 35° Northeast 473 544 35,000  Level Fort Worth Center
03:35PM 33.0869 -92.8839 34° Northeast 492 566 35,000  Level Memphis Center
03:36PM 33.1972 -92.7950 34° Northeast 492 566 35,000  Level Memphis Center
03:37PM 33.2869 -92.6933 43° Northeast 492 566 35,000  Level Memphis Center
03:38PM 33.3769 -92.5664 50° Northeast 486 559 35,000  Level Memphis Center
03:39PM 33.4625 -92.4364 52° Northeast 492 566 35,000  Level Memphis Center
03:40PM 33.5439 -92.3039 54° Northeast 492 566 35,000  Level Memphis Center
03:41PM 33.6336 -92.1761 50° Northeast 492 566 35,000  Level Memphis Center
03:42PM 33.7169 -92.0456 52° Northeast 492 566 35,000  Level Memphis Center
03:43PM 33.8042 -91.9147 51° Northeast 492 566 35,000  Level Memphis Center
03:44PM 33.8869 -91.7861 52° Northeast 486 559 35,000  Level Memphis Center
03:45PM 33.9719 -91.6447 54° Northeast 481 554 35,000  Level Memphis Center
03:46PM 34.0547 -91.5156 52° Northeast 475 547 35,000  Level Memphis Center
03:47PM 34.1392 -91.3886 51° Northeast 481 554 35,000  Level Memphis Center
03:48PM 34.2239 -91.2539 53° Northeast 486 559 35,000  Level Memphis Center
03:49PM 34.3039 -91.1239 53° Northeast 481 554 35,000  Level Memphis Center
03:50PM 34.3839 -90.9939 53° Northeast 481 554 35,000  Level Memphis Center
03:51PM 34.4681 -90.8636 52° Northeast 481 554 35,000  Level Memphis Center
03:52PM 34.5500 -90.7328 53° Northeast 481 554 35,000  Level Memphis Center
03:53PM 34.6317 -90.5969 54° Northeast 487 560 35,000  Level Memphis Center
03:54PM 34.7153 -90.4658 52° Northeast 497 572 35,000  Level Memphis Center
03:55PM 34.7925 -90.3242 56° Northeast 497 572 35,000  Level Memphis Center
03:56PM 34.8758 -90.1925 52° Northeast 497 572 35,000  Level Memphis Center
03:57PM 34.9611 -90.0606 52° Northeast 497 572 35,000  Level Memphis Center
03:58PM 35.0419 -89.9258 54° Northeast 492 566 35,000  Level Memphis Center
03:59PM 35.1208 -89.7908 54° Northeast 492 566 35,000  Level Memphis Center
04:00PM 35.1931 -89.6456 59° Northeast 492 566 35,000  Level Memphis Center
04:01PM 35.2650 -89.5025 58° Northeast 492 566 35,000  Level Memphis Center
04:02PM 35.3350 -89.3594 59° Northeast 492 566 35,000  Level Memphis Center
04:03PM 35.4028 -89.2261 58° Northeast 501 577 35,000  Level Memphis Center
04:04PM 35.4722 -89.0822 59° Northeast 501 577 35,000  Level Memphis Center
04:05PM 35.5436 -88.9383 59° Northeast 496 571 35,000  Level Memphis Center
04:06PM 35.6128 -88.7942 59° Northeast 491 565 35,000  Level Memphis Center
04:07PM 35.6839 -88.6497 59° Northeast 491 565 35,000  Level Memphis Center
04:08PM 35.7528 -88.5050 60° Northeast 491 565 35,000  Level Memphis Center
04:09PM 35.8233 -88.3600 59° Northeast 491 565 35,000  Level Memphis Center
04:10PM 35.8919 -88.2175 59° Northeast 491 565 35,000  Level Memphis Center
04:11PM 35.9625 -88.0797 58° Northeast 480 552 35,000  Level Memphis Center
04:12PM 36.0306 -87.9342 60° Northeast 475 547 35,000  Level Memphis Center
04:13PM 36.1047 -87.7778 60° Northeast 480 552 35,000  Level Memphis Center
04:14PM 36.1725 -87.6317 60° Northeast 485 558 35,000  Level Memphis Center
04:15PM 36.2400 -87.4853 60° Northeast 485 558 35,000 -180 Level Memphis Center
04:16PM 36.3094 -87.3411 59° Northeast 485 558 34,700 -780 Descending Memphis Center
04:17PM 36.3767 -87.1969 60° Northeast 479 551 33,500 -1,200 Descending Memphis Center
04:18PM 36.4439 -87.0525 60° Northeast 479 551 32,300 -1,140 Descending Memphis Center
04:19PM 36.5047 -86.9183 61° Northeast 479 551 31,300 -660 Descending Memphis Center
04:20PM 36.5717 -86.7733 60° Northeast 479 551 31,000 -420 Descending Memphis Center
04:21PM 36.6361 -86.6283 61° Northeast 479 551 30,500 -900 Descending Memphis Center
04:22PM 36.7064 -86.4697 61° Northeast 479 551 29,300 -780 Descending Memphis Center
04:23PM 36.7744 -86.3214 60° Northeast 479 551 29,000 -480 Descending Memphis Center
04:25PM 36.9147 -86.0089 61° Northeast 486 559 27,800 -1,080 Descending Indianapolis Center
04:27PM 37.0478 -85.7089 61° Northeast 487 560 24,500 -1,560 Descending Indianapolis Center
04:28PM 37.1108 -85.5658 61° Northeast 471 542 23,000 -1,800 Descending Indianapolis Center
04:29PM 37.1828 -85.4050 61° Northeast 467 537 20,800 -2,100 Descending Indianapolis Center
04:30PM 37.2442 -85.2664 61° Northeast 455 524 18,700 -2,160 Descending Indianapolis Center
04:31PM 37.3025 -85.1317 61° Northeast 441 507 16,400 -2,280 Descending Indianapolis Center
04:32PM 37.3581 -85.0028 61° Northeast 423 487 14,100 -2,100 Descending Indianapolis Center
04:33PM 37.4111 -84.8794 62° Northeast 403 464 12,100 -1,920 Descending Indianapolis Center
04:34PM 37.4711 -84.7536 59° Northeast 367 422 10,200 -1,020 Descending Indianapolis Center
04:35PM 37.5497 -84.7008 28° Northeast 323 372 10,000 -120 Descending Indianapolis Center
04:36PM 37.6278 -84.6511 27° Northeast 313 360 10,000  Level Indianapolis Center
04:37PM 37.7094 -84.5997 26° Northeast 323 372 10,000 -600 Level Indianapolis Center
04:38PM 37.7875 -84.5483 27° Northeast 320 368 8,800 -1,260 Descending Indianapolis Center
04:39PM 37.8664 -84.5128 20° North 305 351 7,400 -1,020 Descending Indianapolis Center
04:40PM 37.9553 -84.4789 17° North 290 334 6,800 -1,020 Descending Indianapolis Center
04:41PM 38.0328 -84.4833 357° North 281 323 5,300 -1,260 Descending Indianapolis Center
04:42PM 38.0769 -84.5306 320° Northwest 235 270 4,200 -1,320 Descending Indianapolis Center
04:43PM 38.0675 -84.5756 255° West 183 211 2,600 -1,560 Descending Indianapolis Center
04:45PM 38.0368 -84.6086 181° South  Level Estimated
04:52PM 38.0368 -84.6086 358° North  Level Estimated